sensor_id;sensor_type;location;lat;lon;timestamp;pressure;altitude;pressure_sealevel;temperature;humidity
72409;BME280;60402;48.082;11.628;2023-03-19T00:01:58;94998.47;;;5.91;98.15
72409;BME280;60402;48.082;11.628;2023-03-19T00:04:45;95002.19;;;5.84;97.93
72409;BME280;60402;48.082;11.628;2023-03-19T00:07:31;94989.41;;;5.83;98.02
72409;BME280;60402;48.082;11.628;2023-03-19T00:10:17;94973.63;;;5.93;96.70
72409;BME280;60402;48.082;11.628;2023-03-19T00:13:02;94986.72;;;6.00;95.91
72409;BME280;60402;48.082;11.628;2023-03-19T00:15:48;94995.59;;;5.98;96.75
72409;BME280;60402;48.082;11.628;2023-03-19T00:18:34;94994.56;;;5.85;98.31
72409;BME280;60402;48.082;11.628;2023-03-19T00:21:20;94992.25;;;5.80;98.22
72409;BME280;60402;48.082;11.628;2023-03-19T00:24:07;94986.63;;;5.80;98.19
72409;BME280;60402;48.082;11.628;2023-03-19T00:26:52;94977.44;;;5.79;97.03
72409;BME280;60402;48.082;11.628;2023-03-19T00:29:38;94992.84;;;5.91;96.17
72409;BME280;60402;48.082;11.628;2023-03-19T00:32:24;94987.03;;;5.78;97.81
72409;BME280;60402;48.082;11.628;2023-03-19T00:35:10;94990.34;;;5.73;97.60
72409;BME280;60402;48.082;11.628;2023-03-19T00:37:55;94985.38;;;5.57;98.05
72409;BME280;60402;48.082;11.628;2023-03-19T00:40:42;94999.28;;;5.64;98.83
72409;BME280;60402;48.082;11.628;2023-03-19T00:43:27;94993.81;;;5.81;96.20
72409;BME280;60402;48.082;11.628;2023-03-19T00:46:13;95010.25;;;5.55;98.92
72409;BME280;60402;48.082;11.628;2023-03-19T00:48:59;95011.88;;;5.53;99.17
72409;BME280;60402;48.082;11.628;2023-03-19T00:51:44;95013.41;;;5.57;98.75
72409;BME280;60402;48.082;11.628;2023-03-19T00:54:30;95008.03;;;5.43;98.47
72409;BME280;60402;48.082;11.628;2023-03-19T00:57:16;95020.13;;;5.36;99.33
72409;BME280;60402;48.082;11.628;2023-03-19T01:00:03;95006.09;;;5.09;100.00
72409;BME280;60402;48.082;11.628;2023-03-19T01:02:49;95010.66;;;4.96;100.00
72409;BME280;60402;48.082;11.628;2023-03-19T01:05:34;94995.09;;;4.95;100.00
72409;BME280;60402;48.082;11.628;2023-03-19T01:08:20;95011.09;;;4.95;100.00
72409;BME280;60402;48.082;11.628;2023-03-19T01:11:12;95006.63;;;4.67;100.00
72409;BME280;60402;48.082;11.628;2023-03-19T01:13:58;94998.41;;;4.52;100.00
72409;BME280;60402;48.082;11.628;2023-03-19T01:16:44;94999.97;;;4.57;100.00
72409;BME280;60402;48.082;11.628;2023-03-19T01:19:30;94998.25;;;4.67;100.00
72409;BME280;60402;48.082;11.628;2023-03-19T01:22:16;94998.19;;;4.70;100.00
72409;BME280;60402;48.082;11.628;2023-03-19T01:25:04;95009.59;;;4.86;100.00
72409;BME280;60402;48.082;11.628;2023-03-19T01:27:50;94999.22;;;4.83;100.00
72409;BME280;60402;48.082;11.628;2023-03-19T01:30:36;95001.38;;;4.72;100.00
72409;BME280;60402;48.082;11.628;2023-03-19T01:33:22;94996.50;;;4.80;100.00
72409;BME280;60402;48.082;11.628;2023-03-19T01:36:08;95006.28;;;4.95;100.00
72409;BME280;60402;48.082;11.628;2023-03-19T01:38:55;95025.69;;;5.09;100.00
72409;BME280;60402;48.082;11.628;2023-03-19T01:41:41;95015.19;;;5.17;100.00
72409;BME280;60402;48.082;11.628;2023-03-19T01:44:33;95015.63;;;5.16;100.00
72409;BME280;60402;48.082;11.628;2023-03-19T01:47:31;95007.69;;;5.10;100.00
72409;BME280;60402;48.082;11.628;2023-03-19T01:50:38;95010.91;;;5.09;100.00
72409;BME280;60402;48.082;11.628;2023-03-19T01:53:29;95006.47;;;5.11;100.00
72409;BME280;60402;48.082;11.628;2023-03-19T01:56:20;95013.72;;;5.09;100.00
72409;BME280;60402;48.082;11.628;2023-03-19T01:59:12;95016.28;;;4.96;100.00
72409;BME280;60402;48.082;11.628;2023-03-19T02:02:05;95012.72;;;4.92;100.00
72409;BME280;60402;48.082;11.628;2023-03-19T02:05:16;95015.81;;;5.01;100.00
72409;BME280;60402;48.082;11.628;2023-03-19T02:08:13;95014.66;;;4.99;100.00
72409;BME280;60402;48.082;11.628;2023-03-19T02:10:59;95014.72;;;4.92;100.00
72409;BME280;60402;48.082;11.628;2023-03-19T02:13:45;95023.19;;;4.84;100.00
72409;BME280;60402;48.082;11.628;2023-03-19T02:16:31;95016.91;;;4.77;100.00
72409;BME280;60402;48.082;11.628;2023-03-19T02:19:29;95004.59;;;4.71;100.00
72409;BME280;60402;48.082;11.628;2023-03-19T02:22:18;94994.34;;;4.91;100.00
72409;BME280;60402;48.082;11.628;2023-03-19T02:25:13;95005.66;;;5.11;100.00
72409;BME280;60402;48.082;11.628;2023-03-19T02:28:00;95005.84;;;4.97;100.00
72409;BME280;60402;48.082;11.628;2023-03-19T02:30:47;95004.97;;;5.03;100.00
72409;BME280;60402;48.082;11.628;2023-03-19T02:33:33;94984.94;;;4.74;100.00
72409;BME280;60402;48.082;11.628;2023-03-19T02:36:20;94992.78;;;4.86;100.00
72409;BME280;60402;48.082;11.628;2023-03-19T02:39:11;95015.63;;;4.85;99.31
72409;BME280;60402;48.082;11.628;2023-03-19T02:41:58;95015.41;;;4.69;100.00
72409;BME280;60402;48.082;11.628;2023-03-19T02:44:45;95029.50;;;4.61;100.00
72409;BME280;60402;48.082;11.628;2023-03-19T02:47:32;95018.88;;;4.42;100.00
72409;BME280;60402;48.082;11.628;2023-03-19T02:50:17;95028.47;;;4.45;100.00
72409;BME280;60402;48.082;11.628;2023-03-19T02:53:03;95028.78;;;4.50;100.00
72409;BME280;60402;48.082;11.628;2023-03-19T02:55:49;95028.94;;;4.36;100.00
72409;BME280;60402;48.082;11.628;2023-03-19T02:58:34;95030.97;;;4.32;100.00
72409;BME280;60402;48.082;11.628;2023-03-19T03:01:20;95015.88;;;4.26;100.00
72409;BME280;60402;48.082;11.628;2023-03-19T03:04:06;95019.16;;;4.17;100.00
72409;BME280;60402;48.082;11.628;2023-03-19T03:06:51;95032.28;;;4.24;100.00
72409;BME280;60402;48.082;11.628;2023-03-19T03:09:37;95041.22;;;4.46;100.00
72409;BME280;60402;48.082;11.628;2023-03-19T03:12:23;95032.03;;;4.45;100.00
72409;BME280;60402;48.082;11.628;2023-03-19T03:15:09;95033.28;;;4.41;100.00
72409;BME280;60402;48.082;11.628;2023-03-19T03:17:54;95045.56;;;4.54;100.00
72409;BME280;60402;48.082;11.628;2023-03-19T03:20:41;95048.03;;;4.45;100.00
72409;BME280;60402;48.082;11.628;2023-03-19T03:23:27;95042.16;;;4.32;100.00
72409;BME280;60402;48.082;11.628;2023-03-19T03:26:13;95048.47;;;4.43;100.00
72409;BME280;60402;48.082;11.628;2023-03-19T03:28:59;95044.50;;;4.37;100.00
72409;BME280;60402;48.082;11.628;2023-03-19T03:31:45;95042.13;;;4.35;100.00
72409;BME280;60402;48.082;11.628;2023-03-19T03:34:31;95036.63;;;4.28;100.00
72409;BME280;60402;48.082;11.628;2023-03-19T03:37:16;95042.63;;;4.27;100.00
72409;BME280;60402;48.082;11.628;2023-03-19T03:40:04;95038.28;;;4.19;100.00
72409;BME280;60402;48.082;11.628;2023-03-19T03:42:52;95061.09;;;4.17;100.00
72409;BME280;60402;48.082;11.628;2023-03-19T03:45:38;95049.13;;;4.17;100.00
72409;BME280;60402;48.082;11.628;2023-03-19T03:48:24;95062.28;;;4.20;100.00
72409;BME280;60402;48.082;11.628;2023-03-19T03:51:10;95061.44;;;4.23;100.00
72409;BME280;60402;48.082;11.628;2023-03-19T03:53:56;95043.97;;;4.12;100.00
72409;BME280;60402;48.082;11.628;2023-03-19T03:56:41;95065.84;;;4.24;100.00
72409;BME280;60402;48.082;11.628;2023-03-19T03:59:27;95046.75;;;4.12;100.00
72409;BME280;60402;48.082;11.628;2023-03-19T04:02:13;95060.59;;;4.29;100.00
72409;BME280;60402;48.082;11.628;2023-03-19T04:04:58;95065.38;;;4.29;100.00
72409;BME280;60402;48.082;11.628;2023-03-19T04:07:44;95050.78;;;4.10;100.00
72409;BME280;60402;48.082;11.628;2023-03-19T04:10:30;95066.78;;;4.06;100.00
72409;BME280;60402;48.082;11.628;2023-03-19T04:13:16;95054.91;;;3.95;100.00
72409;BME280;60402;48.082;11.628;2023-03-19T04:16:06;95056.44;;;4.00;100.00
72409;BME280;60402;48.082;11.628;2023-03-19T04:18:52;95061.25;;;3.99;100.00
72409;BME280;60402;48.082;11.628;2023-03-19T04:21:38;95083.53;;;4.10;100.00
72409;BME280;60402;48.082;11.628;2023-03-19T04:24:24;95066.81;;;4.03;100.00
72409;BME280;60402;48.082;11.628;2023-03-19T04:27:10;95077.56;;;4.04;100.00
72409;BME280;60402;48.082;11.628;2023-03-19T04:29:56;95071.56;;;4.09;100.00
72409;BME280;60402;48.082;11.628;2023-03-19T04:32:41;95080.31;;;4.12;100.00
72409;BME280;60402;48.082;11.628;2023-03-19T04:35:28;95061.56;;;4.08;100.00
72409;BME280;60402;48.082;11.628;2023-03-19T04:38:14;95087.38;;;4.27;100.00
72409;BME280;60402;48.082;11.628;2023-03-19T04:41:00;95069.47;;;4.17;100.00
72409;BME280;60402;48.082;11.628;2023-03-19T04:43:46;95095.44;;;4.18;100.00
72409;BME280;60402;48.082;11.628;2023-03-19T04:46:31;95097.41;;;4.21;100.00
72409;BME280;60402;48.082;11.628;2023-03-19T04:49:17;95077.97;;;4.06;100.00
72409;BME280;60402;48.082;11.628;2023-03-19T04:52:03;95089.06;;;4.14;100.00
72409;BME280;60402;48.082;11.628;2023-03-19T04:54:50;95090.69;;;4.15;100.00
72409;BME280;60402;48.082;11.628;2023-03-19T04:57:36;95082.69;;;4.13;100.00
72409;BME280;60402;48.082;11.628;2023-03-19T05:00:21;95094.59;;;4.24;100.00
72409;BME280;60402;48.082;11.628;2023-03-19T05:03:07;95103.78;;;4.25;100.00
72409;BME280;60402;48.082;11.628;2023-03-19T05:05:53;95100.56;;;4.26;100.00
72409;BME280;60402;48.082;11.628;2023-03-19T05:08:39;95102.56;;;4.26;100.00
72409;BME280;60402;48.082;11.628;2023-03-19T05:11:25;95109.78;;;4.23;100.00
72409;BME280;60402;48.082;11.628;2023-03-19T05:14:11;95096.22;;;4.22;100.00
72409;BME280;60402;48.082;11.628;2023-03-19T05:16:57;95101.81;;;4.22;100.00
72409;BME280;60402;48.082;11.628;2023-03-19T05:19:42;95129.53;;;4.47;100.00
72409;BME280;60402;48.082;11.628;2023-03-19T05:22:28;95123.72;;;4.30;100.00
72409;BME280;60402;48.082;11.628;2023-03-19T05:25:14;95131.66;;;4.35;100.00
72409;BME280;60402;48.082;11.628;2023-03-19T05:27:59;95124.84;;;4.36;100.00
72409;BME280;60402;48.082;11.628;2023-03-19T05:30:45;95120.88;;;4.34;100.00
72409;BME280;60402;48.082;11.628;2023-03-19T05:33:31;95124.03;;;4.40;100.00
72409;BME280;60402;48.082;11.628;2023-03-19T05:36:16;95135.44;;;4.59;100.00
72409;BME280;60402;48.082;11.628;2023-03-19T05:39:03;95156.59;;;4.64;100.00
72409;BME280;60402;48.082;11.628;2023-03-19T05:41:50;95150.88;;;4.75;100.00
72409;BME280;60402;48.082;11.628;2023-03-19T05:44:36;95146.94;;;4.69;100.00
72409;BME280;60402;48.082;11.628;2023-03-19T05:47:21;95150.16;;;4.67;100.00
72409;BME280;60402;48.082;11.628;2023-03-19T05:50:08;95164.84;;;4.78;100.00
72409;BME280;60402;48.082;11.628;2023-03-19T05:52:54;95175.19;;;4.85;100.00
72409;BME280;60402;48.082;11.628;2023-03-19T05:55:39;95149.63;;;4.79;100.00
72409;BME280;60402;48.082;11.628;2023-03-19T05:58:25;95154.22;;;5.00;100.00
72409;BME280;60402;48.082;11.628;2023-03-19T06:01:12;95178.00;;;5.23;100.00
72409;BME280;60402;48.082;11.628;2023-03-19T06:03:58;95169.44;;;5.37;100.00
72409;BME280;60402;48.082;11.628;2023-03-19T06:06:43;95164.13;;;5.46;100.00
72409;BME280;60402;48.082;11.628;2023-03-19T06:09:29;95165.94;;;5.60;100.00
72409;BME280;60402;48.082;11.628;2023-03-19T06:12:15;95178.44;;;5.82;100.00
72409;BME280;60402;48.082;11.628;2023-03-19T06:15:01;95190.25;;;6.01;100.00
72409;BME280;60402;48.082;11.628;2023-03-19T06:17:47;95176.94;;;6.08;100.00
72409;BME280;60402;48.082;11.628;2023-03-19T06:20:32;95198.56;;;6.35;100.00
72409;BME280;60402;48.082;11.628;2023-03-19T06:23:18;95186.16;;;6.36;100.00
72409;BME280;60402;48.082;11.628;2023-03-19T06:26:04;95184.31;;;6.49;100.00
72409;BME280;60402;48.082;11.628;2023-03-19T06:28:50;95214.88;;;6.71;100.00
72409;BME280;60402;48.082;11.628;2023-03-19T06:31:36;95216.44;;;6.72;100.00
72409;BME280;60402;48.082;11.628;2023-03-19T06:34:24;95215.06;;;6.83;100.00
72409;BME280;60402;48.082;11.628;2023-03-19T06:37:10;95222.63;;;6.86;100.00
72409;BME280;60402;48.082;11.628;2023-03-19T06:39:55;95225.38;;;7.13;100.00
72409;BME280;60402;48.082;11.628;2023-03-19T06:42:45;95223.91;;;7.05;100.00
72409;BME280;60402;48.082;11.628;2023-03-19T06:45:33;95220.19;;;7.12;100.00
72409;BME280;60402;48.082;11.628;2023-03-19T06:48:19;95224.72;;;7.29;100.00
72409;BME280;60402;48.082;11.628;2023-03-19T06:51:05;95233.50;;;7.31;100.00
72409;BME280;60402;48.082;11.628;2023-03-19T06:53:51;95222.59;;;7.33;99.98
72409;BME280;60402;48.082;11.628;2023-03-19T06:56:36;95229.75;;;7.38;99.88
72409;BME280;60402;48.082;11.628;2023-03-19T06:59:22;95240.38;;;7.50;100.00
72409;BME280;60402;48.082;11.628;2023-03-19T07:02:11;95268.66;;;7.63;98.89
72409;BME280;60402;48.082;11.628;2023-03-19T07:04:56;95263.03;;;7.63;98.89
72409;BME280;60402;48.082;11.628;2023-03-19T07:07:42;95277.69;;;7.74;98.25
72409;BME280;60402;48.082;11.628;2023-03-19T07:10:28;95271.69;;;7.72;98.02
72409;BME280;60402;48.082;11.628;2023-03-19T07:13:13;95267.59;;;7.77;97.59
72409;BME280;60402;48.082;11.628;2023-03-19T07:15:59;95274.31;;;7.83;97.72
72409;BME280;60402;48.082;11.628;2023-03-19T07:18:45;95278.91;;;7.93;97.48
72409;BME280;60402;48.082;11.628;2023-03-19T07:21:30;95290.84;;;8.01;98.16
72409;BME280;60402;48.082;11.628;2023-03-19T07:24:16;95295.78;;;8.13;97.03
72409;BME280;60402;48.082;11.628;2023-03-19T07:27:02;95295.38;;;8.14;96.90
72409;BME280;60402;48.082;11.628;2023-03-19T07:29:47;95309.88;;;8.33;96.13
72409;BME280;60402;48.082;11.628;2023-03-19T07:32:33;95311.59;;;8.27;96.26
72409;BME280;60402;48.082;11.628;2023-03-19T07:35:19;95329.16;;;8.34;96.74
72409;BME280;60402;48.082;11.628;2023-03-19T07:38:05;95322.59;;;8.41;95.42
72409;BME280;60402;48.082;11.628;2023-03-19T07:40:51;95320.88;;;8.47;95.72
72409;BME280;60402;48.082;11.628;2023-03-19T07:43:36;95331.63;;;8.52;95.90
72409;BME280;60402;48.082;11.628;2023-03-19T07:46:22;95334.72;;;8.58;96.27
72409;BME280;60402;48.082;11.628;2023-03-19T07:49:08;95325.38;;;8.61;96.30
72409;BME280;60402;48.082;11.628;2023-03-19T07:51:54;95326.28;;;8.58;96.79
72409;BME280;60402;48.082;11.628;2023-03-19T07:54:39;95334.13;;;8.66;97.25
72409;BME280;60402;48.082;11.628;2023-03-19T07:57:25;95325.69;;;8.66;97.18
72409;BME280;60402;48.082;11.628;2023-03-19T08:00:11;95328.09;;;8.84;96.51
72409;BME280;60402;48.082;11.628;2023-03-19T08:02:57;95328.97;;;8.81;96.83
72409;BME280;60402;48.082;11.628;2023-03-19T08:05:43;95330.03;;;8.87;97.38
72409;BME280;60402;48.082;11.628;2023-03-19T08:08:28;95345.13;;;8.97;97.03
72409;BME280;60402;48.082;11.628;2023-03-19T08:11:14;95323.00;;;8.95;96.96
72409;BME280;60402;48.082;11.628;2023-03-19T08:14:00;95335.41;;;8.98;96.66
72409;BME280;60402;48.082;11.628;2023-03-19T08:16:45;95330.94;;;9.01;97.18
72409;BME280;60402;48.082;11.628;2023-03-19T08:19:31;95339.88;;;9.15;96.55
72409;BME280;60402;48.082;11.628;2023-03-19T08:22:17;95338.47;;;9.24;96.87
72409;BME280;60402;48.082;11.628;2023-03-19T08:25:04;95333.88;;;9.30;96.13
72409;BME280;60402;48.082;11.628;2023-03-19T08:27:50;95335.66;;;9.24;97.00
72409;BME280;60402;48.082;11.628;2023-03-19T08:30:36;95328.16;;;9.33;96.65
72409;BME280;60402;48.082;11.628;2023-03-19T08:33:22;95327.44;;;9.29;96.33
72409;BME280;60402;48.082;11.628;2023-03-19T08:36:11;95333.19;;;9.42;97.17
72409;BME280;60402;48.082;11.628;2023-03-19T08:38:57;95338.81;;;9.26;97.69
72409;BME280;60402;48.082;11.628;2023-03-19T08:41:43;95333.63;;;9.40;96.94
72409;BME280;60402;48.082;11.628;2023-03-19T08:44:29;95345.53;;;9.48;96.89
72409;BME280;60402;48.082;11.628;2023-03-19T08:47:14;95338.91;;;9.38;97.01
72409;BME280;60402;48.082;11.628;2023-03-19T08:50:00;95364.13;;;9.62;96.61
72409;BME280;60402;48.082;11.628;2023-03-19T08:52:46;95371.59;;;9.68;96.02
72409;BME280;60402;48.082;11.628;2023-03-19T08:55:32;95354.63;;;9.56;96.85
72409;BME280;60402;48.082;11.628;2023-03-19T08:58:18;95365.91;;;9.56;96.76
72409;BME280;60402;48.082;11.628;2023-03-19T09:01:12;95378.75;;;9.73;95.39
72409;BME280;60402;48.082;11.628;2023-03-19T09:03:59;95368.94;;;9.78;95.42
72409;BME280;60402;48.082;11.628;2023-03-19T09:06:44;95373.91;;;9.90;95.57
72409;BME280;60402;48.082;11.628;2023-03-19T09:09:30;95373.81;;;9.93;95.05
72409;BME280;60402;48.082;11.628;2023-03-19T09:12:17;95368.56;;;10.08;94.12
72409;BME280;60402;48.082;11.628;2023-03-19T09:15:03;95381.59;;;10.18;94.04
72409;BME280;60402;48.082;11.628;2023-03-19T09:17:50;95372.88;;;10.29;93.53
72409;BME280;60402;48.082;11.628;2023-03-19T09:20:36;95366.94;;;10.40;93.08
72409;BME280;60402;48.082;11.628;2023-03-19T09:23:21;95386.00;;;10.65;91.79
72409;BME280;60402;48.082;11.628;2023-03-19T09:26:07;95376.28;;;10.66;90.99
72409;BME280;60402;48.082;11.628;2023-03-19T09:28:53;95387.75;;;10.88;90.47
72409;BME280;60402;48.082;11.628;2023-03-19T09:31:38;95381.34;;;11.13;89.56
72409;BME280;60402;48.082;11.628;2023-03-19T09:34:24;95382.25;;;11.22;88.95
72409;BME280;60402;48.082;11.628;2023-03-19T09:37:10;95383.50;;;11.47;88.06
72409;BME280;60402;48.082;11.628;2023-03-19T09:39:56;95388.72;;;11.61;87.67
72409;BME280;60402;48.082;11.628;2023-03-19T09:43:12;95388.25;;;11.75;87.17
72409;BME280;60402;48.082;11.628;2023-03-19T09:46:08;95392.22;;;11.78;86.42
72409;BME280;60402;48.082;11.628;2023-03-19T09:49:45;95395.53;;;11.76;85.50
72409;BME280;60402;48.082;11.628;2023-03-19T09:55:51;95395.88;;;11.53;86.16
72409;BME280;60402;48.082;11.628;2023-03-19T09:58:20;95398.69;;;11.66;86.45
72409;BME280;60402;48.082;11.628;2023-03-19T10:01:06;95400.06;;;11.48;86.70
72409;BME280;60402;48.082;11.628;2023-03-19T10:06:51;95396.09;;;11.46;87.18
72409;BME280;60402;48.082;11.628;2023-03-19T10:15:32;95387.25;;;11.57;86.36
72409;BME280;60402;48.082;11.628;2023-03-19T10:18:27;95394.59;;;11.80;86.37
72409;BME280;60402;48.082;11.628;2023-03-19T10:24:38;95379.72;;;12.14;84.31
72409;BME280;60402;48.082;11.628;2023-03-19T10:27:26;95377.03;;;12.10;83.21
72409;BME280;60402;48.082;11.628;2023-03-19T10:30:17;95384.25;;;12.46;82.29
72409;BME280;60402;48.082;11.628;2023-03-19T10:33:22;95394.03;;;12.67;82.04
72409;BME280;60402;48.082;11.628;2023-03-19T10:36:10;95379.09;;;12.66;82.04
72409;BME280;60402;48.082;11.628;2023-03-19T10:38:56;95393.25;;;12.66;81.53
72409;BME280;60402;48.082;11.628;2023-03-19T10:45:01;95378.94;;;12.70;80.24
72409;BME280;60402;48.082;11.628;2023-03-19T10:47:48;95393.69;;;12.65;80.80
72409;BME280;60402;48.082;11.628;2023-03-19T10:53:36;95384.66;;;12.79;80.06
72409;BME280;60402;48.082;11.628;2023-03-19T10:56:24;95385.03;;;12.81;79.66
72409;BME280;60402;48.082;11.628;2023-03-19T10:59:37;95387.06;;;12.81;80.17
72409;BME280;60402;48.082;11.628;2023-03-19T11:02:24;95370.56;;;12.88;78.73
72409;BME280;60402;48.082;11.628;2023-03-19T11:05:25;95380.38;;;13.18;78.23
72409;BME280;60402;48.082;11.628;2023-03-19T11:08:18;95369.03;;;13.18;77.32
72409;BME280;60402;48.082;11.628;2023-03-19T11:11:05;95372.06;;;13.24;76.40
72409;BME280;60402;48.082;11.628;2023-03-19T11:13:51;95367.28;;;12.90;77.34
72409;BME280;60402;48.082;11.628;2023-03-19T11:16:47;95375.56;;;13.06;77.59
72409;BME280;60402;48.082;11.628;2023-03-19T11:19:40;95378.31;;;13.19;76.45
72409;BME280;60402;48.082;11.628;2023-03-19T11:22:29;95369.84;;;12.97;76.55
72409;BME280;60402;48.082;11.628;2023-03-19T11:25:23;95356.72;;;12.90;76.53
72409;BME280;60402;48.082;11.628;2023-03-19T11:28:14;95371.28;;;12.79;77.99
72409;BME280;60402;48.082;11.628;2023-03-19T11:31:19;95366.25;;;13.05;76.48
72409;BME280;60402;48.082;11.628;2023-03-19T11:37:19;95362.78;;;13.01;76.49
72409;BME280;60402;48.082;11.628;2023-03-19T11:40:43;95355.53;;;13.00;76.21
72409;BME280;60402;48.082;11.628;2023-03-19T11:46:37;95360.00;;;13.11;75.82
72409;BME280;60402;48.082;11.628;2023-03-19T11:55:49;95341.69;;;13.12;74.47
72409;BME280;60402;48.082;11.628;2023-03-19T12:22:41;95319.44;;;13.23;71.18
72409;BME280;60402;48.082;11.628;2023-03-19T12:25:57;95324.75;;;13.52;71.19
72409;BME280;60402;48.082;11.628;2023-03-19T12:28:58;95311.50;;;13.58;69.49
72409;BME280;60402;48.082;11.628;2023-03-19T12:32:13;95309.50;;;13.77;63.94
72409;BME280;60402;48.082;11.628;2023-03-19T12:35:08;95309.88;;;13.97;65.33
72409;BME280;60402;48.082;11.628;2023-03-19T12:38:03;95308.16;;;14.18;64.25
72409;BME280;60402;48.082;11.628;2023-03-19T12:43:54;95296.66;;;14.49;62.24
72409;BME280;60402;48.082;11.628;2023-03-19T12:46:45;95302.34;;;14.49;61.68
72409;BME280;60402;48.082;11.628;2023-03-19T12:49:41;95286.69;;;14.36;62.26
72409;BME280;60402;48.082;11.628;2023-03-19T12:52:43;95272.63;;;14.41;60.78
72409;BME280;60402;48.082;11.628;2023-03-19T12:55:39;95293.63;;;14.53;61.07
72409;BME280;60402;48.082;11.628;2023-03-19T13:01:48;95280.84;;;14.02;61.87
72409;BME280;60402;48.082;11.628;2023-03-19T13:04:46;95295.50;;;14.10;61.37
72409;BME280;60402;48.082;11.628;2023-03-19T13:10:38;95279.25;;;14.01;59.82
72409;BME280;60402;48.082;11.628;2023-03-19T13:13:41;95285.91;;;14.07;58.14
72409;BME280;60402;48.082;11.628;2023-03-19T13:16:54;95276.72;;;13.94;57.66
72409;BME280;60402;48.082;11.628;2023-03-19T13:19:47;95270.88;;;13.98;57.97
72409;BME280;60402;48.082;11.628;2023-03-19T13:22:37;95253.03;;;14.06;54.94
72409;BME280;60402;48.082;11.628;2023-03-19T13:25:26;95273.75;;;14.07;57.19
72409;BME280;60402;48.082;11.628;2023-03-19T13:28:28;95272.78;;;14.28;56.65
72409;BME280;60402;48.082;11.628;2023-03-19T13:31:19;95261.41;;;14.38;56.65
72409;BME280;60402;48.082;11.628;2023-03-19T13:37:19;95255.88;;;14.34;55.72
72409;BME280;60402;48.082;11.628;2023-03-19T13:40:06;95270.41;;;14.27;55.84
72409;BME280;60402;48.082;11.628;2023-03-19T13:42:55;95266.00;;;14.17;55.86
72409;BME280;60402;48.082;11.628;2023-03-19T13:45:41;95251.31;;;14.18;55.95
72409;BME280;60402;48.082;11.628;2023-03-19T13:59:47;95258.72;;;13.70;55.70
72409;BME280;60402;48.082;11.628;2023-03-19T14:05:21;95255.31;;;13.44;57.89
72409;BME280;60402;48.082;11.628;2023-03-19T14:08:21;95234.69;;;13.12;58.86
72409;BME280;60402;48.082;11.628;2023-03-19T14:11:09;95236.59;;;13.15;58.67
72409;BME280;60402;48.082;11.628;2023-03-19T14:13:55;95234.63;;;13.25;58.48
72409;BME280;60402;48.082;11.628;2023-03-19T14:16:44;95242.88;;;13.10;58.50
72409;BME280;60402;48.082;11.628;2023-03-19T14:19:39;95241.50;;;12.84;60.54
72409;BME280;60402;48.082;11.628;2023-03-19T14:22:34;95227.50;;;12.80;61.42
72409;BME280;60402;48.082;11.628;2023-03-19T14:25:26;95232.81;;;12.78;61.79
72409;BME280;60402;48.082;11.628;2023-03-19T14:28:17;95233.34;;;12.86;61.73
72409;BME280;60402;48.082;11.628;2023-03-19T14:31:05;95211.44;;;12.86;60.85
72409;BME280;60402;48.082;11.628;2023-03-19T14:37:12;95226.13;;;12.94;61.14
72409;BME280;60402;48.082;11.628;2023-03-19T14:40:22;95226.63;;;13.42;58.98
72409;BME280;60402;48.082;11.628;2023-03-19T14:43:16;95229.94;;;13.49;58.44
72409;BME280;60402;48.082;11.628;2023-03-19T14:55:15;95224.13;;;13.62;57.80
72409;BME280;60402;48.082;11.628;2023-03-19T14:58:02;95217.03;;;13.58;57.68
72409;BME280;60402;48.082;11.628;2023-03-19T15:00:50;95222.69;;;13.48;58.23
72409;BME280;60402;48.082;11.628;2023-03-19T15:03:37;95226.16;;;13.52;58.53
72409;BME280;60402;48.082;11.628;2023-03-19T15:06:23;95219.91;;;14.03;56.06
72409;BME280;60402;48.082;11.628;2023-03-19T15:09:23;95208.22;;;13.92;56.37
72409;BME280;60402;48.082;11.628;2023-03-19T15:12:28;95214.88;;;14.07;54.84
72409;BME280;60402;48.082;11.628;2023-03-19T15:15:29;95219.88;;;13.67;56.98
72409;BME280;60402;48.082;11.628;2023-03-19T15:18:16;95216.09;;;13.61;56.88
72409;BME280;60402;48.082;11.628;2023-03-19T15:21:05;95212.09;;;13.40;57.27
72409;BME280;60402;48.082;11.628;2023-03-19T15:23:51;95208.03;;;13.59;57.60
72409;BME280;60402;48.082;11.628;2023-03-19T15:26:37;95214.84;;;13.62;57.65
72409;BME280;60402;48.082;11.628;2023-03-19T15:29:32;95206.31;;;13.62;57.94
72409;BME280;60402;48.082;11.628;2023-03-19T15:32:32;95207.59;;;13.61;57.10
72409;BME280;60402;48.082;11.628;2023-03-19T15:35:21;95195.22;;;13.45;57.81
72409;BME280;60402;48.082;11.628;2023-03-19T15:38:10;95206.50;;;13.95;56.32
72409;BME280;60402;48.082;11.628;2023-03-19T15:41:00;95215.66;;;13.99;56.50
72409;BME280;60402;48.082;11.628;2023-03-19T15:43:47;95182.97;;;13.85;56.18
72409;BME280;60402;48.082;11.628;2023-03-19T15:46:35;95200.50;;;13.65;56.63
72409;BME280;60402;48.082;11.628;2023-03-19T15:49:34;95209.03;;;13.74;57.11
72409;BME280;60402;48.082;11.628;2023-03-19T15:52:21;95208.06;;;13.87;56.32
72409;BME280;60402;48.082;11.628;2023-03-19T15:55:08;95209.66;;;13.78;56.83
72409;BME280;60402;48.082;11.628;2023-03-19T15:57:55;95205.22;;;13.68;57.28
72409;BME280;60402;48.082;11.628;2023-03-19T16:00:47;95205.38;;;13.65;57.63
72409;BME280;60402;48.082;11.628;2023-03-19T16:03:38;95206.47;;;13.58;57.45
72409;BME280;60402;48.082;11.628;2023-03-19T16:06:28;95184.34;;;13.35;57.18
72409;BME280;60402;48.082;11.628;2023-03-19T16:12:36;95207.66;;;13.29;58.86
72409;BME280;60402;48.082;11.628;2023-03-19T16:15:44;95209.88;;;13.25;58.71
72409;BME280;60402;48.082;11.628;2023-03-19T16:18:46;95220.69;;;13.18;59.21
72409;BME280;60402;48.082;11.628;2023-03-19T16:21:40;95187.22;;;12.94;59.13
72409;BME280;60402;48.082;11.628;2023-03-19T16:24:30;95224.69;;;13.29;59.20
72409;BME280;60402;48.082;11.628;2023-03-19T16:27:20;95214.22;;;13.17;59.18